Time,TemperatureF,DewpointF,PressureIn,WindDirection,WindDirectionDegrees,WindSpeedMPH,WindSpeedGustMPH,Humidity,HourlyPrecipIn,Conditions,Clouds,dailyrainin,SolarRadiationWatts/m^2,SoftwareType,DateUTC
2013-05-08 00:00:00,57.6,52.4,30.14,SSE,159,0.0,0.0,83,0.00,FEW,OVC,0.00,0.0,WeatherDisplay:10.37,2013-05-08 04:00:00,
2013-05-08 00:01:00,57.6,52.4,30.14,SSE,159,0.0,0.0,83,0.00,SCT,OVC,0.00,0.0,WeatherDisplay:10.37,2013-05-08 04:01:00,
2013-05-08 00:06:00,57.4,52.3,30.14,SSE,159,0.0,0.0,83,0.00,SCT,OVC,0.00,0.0,WeatherDisplay:10.37,2013-05-08 04:06:00,
2013-05-08 00:11:00,57.2,52.4,30.14,SSE,159,0.0,0.0,84,0.00,SCT,OVC,0.00,0.0,WeatherDisplay:10.37,2013-05-08 04:11:00,
2013-05-08 00:16:00,57.0,52.2,30.14,SSE,159,0.0,0.0,84,0.00,SCT,OVC,0.00,0.0,WeatherDisplay:10.37,2013-05-08 04:16:00,
2013-05-08 00:21:00,56.8,52.1,30.14,SSE,159,0.0,0.0,84,0.00,SCT,OVC,0.00,0.0,WeatherDisplay:10.37,2013-05-08 04:21:00,
2013-05-08 00:26:00,56.8,52.1,30.14,SSE,159,0.0,0.0,84,0.00,SCT,OVC,0.00,0.0,WeatherDisplay:10.37,2013-05-08 04:26:00,
2013-05-08 00:31:00,56.7,52.2,30.14,SSE,163,0.0,0.0,85,0.00,SCT,OVC,0.00,0.0,WeatherDisplay:10.37,2013-05-08 04:31:00,
2013-05-08 00:36:00,56.5,52.0,30.14,SSE,163,0.0,0.0,85,0.00,SCT,OVC,0.00,0.0,WeatherDisplay:10.37,2013-05-08 04:36:00,
2013-05-08 00:41:00,56.3,52.2,30.14,SSE,163,0.0,0.0,86,0.00,SCT,OVC,0.00,0.0,WeatherDisplay:10.37,2013-05-08 04:41:00,
2013-05-08 00:46:00,56.3,52.2,30.14,SSE,163,0.0,0.0,86,0.00,SCT,OVC,0.00,0.0,WeatherDisplay:10.37,2013-05-08 04:46:00,
2013-05-08 00:51:00,56.3,52.5,30.14,SSE,163,0.0,0.0,87,0.00,SCT,OVC,0.00,0.0,WeatherDisplay:10.37,2013-05-08 04:51:00,
2013-05-08 00:56:00,56.3,52.5,30.14,SSE,163,0.0,0.0,87,0.00,SCT,OVC,0.00,0.0,WeatherDisplay:10.37,2013-05-08 04:56:00,
2013-05-08 01:01:00,56.3,52.5,30.14,SSE,163,0.0,0.0,87,0.00,SCT,OVC,0.00,0.0,WeatherDisplay:10.37,2013-05-08 05:01:00,
2013-05-08 01:06:00,56.1,52.3,30.14,SSE,163,0.0,0.0,87,0.00,SCT,OVC,0.00,0.0,WeatherDisplay:10.37,2013-05-08 05:06:00,
2013-05-08 01:11:00,56.1,52.3,30.14,SSE,163,0.0,0.0,87,0.00,SCT,OVC,0.00,0.0,WeatherDisplay:10.37,2013-05-08 05:11:00,
2013-05-08 01:16:00,55.9,52.4,30.14,SSE,163,0.0,0.0,88,0.00,CLR,OVC,0.00,0.0,WeatherDisplay:10.37,2013-05-08 05:16:00,
2013-05-08 01:21:00,55.9,52.4,30.14,SSE,163,0.0,0.0,88,0.00,CLR,OVC,0.00,0.0,WeatherDisplay:10.37,2013-05-08 05:21:00,
2013-05-08 01:26:00,55.9,52.4,30.11,SSE,163,0.0,0.0,88,0.00,CLR,OVC,0.00,0.0,WeatherDisplay:10.37,2013-05-08 05:26:00,
2013-05-08 01:31:00,55.9,52.7,30.11,SSE,163,0.0,0.0,89,0.00,CLR,OVC,0.00,0.0,WeatherDisplay:10.37,2013-05-08 05:31:00,
2013-05-08 01:36:00,55.8,52.6,30.11,SSE,163,0.0,0.0,89,0.00,CLR,OVC,0.00,0.0,WeatherDisplay:10.37,2013-05-08 05:36:00,
2013-05-08 01:41:00,55.6,52.4,30.11,SSE,163,0.0,0.0,89,0.00,CLR,OVC,0.00,0.0,WeatherDisplay:10.37,2013-05-08 05:41:00,
2013-05-08 01:46:00,55.4,52.2,30.11,SSE,163,0.0,0.0,89,0.00,CLR,OVC,0.00,0.0,WeatherDisplay:10.37,2013-05-08 05:46:00,
2013-05-08 01:51:00,55.4,52.2,30.11,SSE,163,0.0,0.0,89,0.00,CLR,OVC,0.00,0.0,WeatherDisplay:10.37,2013-05-08 05:51:00,
2013-05-08 01:56:00,55.4,52.2,30.11,SSE,163,0.0,0.0,89,0.00,CLR,OVC,0.00,0.0,WeatherDisplay:10.37,2013-05-08 05:56:00,
2013-05-08 02:01:00,55.2,52.3,30.11,SSE,163,0.0,0.0,90,0.00,CLR,OVC,0.00,0.0,WeatherDisplay:10.37,2013-05-08 06:01:00,
2013-05-08 02:06:00,55.2,52.3,30.11,SSE,163,0.0,0.0,90,0.00,CLR,OVC,0.00,0.0,WeatherDisplay:10.37,2013-05-08 06:06:00,
2013-05-08 02:11:00,55.2,52.3,30.11,SSE,163,0.0,0.0,90,0.00,CLR,OVC,0.00,0.0,WeatherDisplay:10.37,2013-05-08 06:11:00,
2013-05-08 02:16:00,55.2,52.3,30.11,SSE,163,0.0,0.0,90,0.00,BKN,OVC,0.00,0.0,WeatherDisplay:10.37,2013-05-08 06:16:00,
2013-05-08 02:21:00,55.2,52.6,30.11,SSE,163,0.0,0.0,91,0.00,BKN,OVC,0.00,0.0,WeatherDisplay:10.37,2013-05-08 06:21:00,
2013-05-08 02:26:00,55.0,52.5,30.11,SSE,163,0.0,0.0,91,0.00,BKN,OVC,0.00,0.0,WeatherDisplay:10.37,2013-05-08 06:26:00,
2013-05-08 02:31:00,55.0,52.5,30.11,SSE,163,0.0,0.0,91,0.00,BKN,OVC,0.00,0.0,WeatherDisplay:10.37,2013-05-08 06:31:00,
2013-05-08 02:36:00,55.0,52.5,30.11,SSE,163,0.0,0.0,91,0.00,BKN,OVC,0.00,0.0,WeatherDisplay:10.37,2013-05-08 06:36:00,
2013-05-08 02:41:00,55.0,52.5,30.11,SSE,163,0.0,0.0,91,0.00,BKN,OVC,0.00,0.0,WeatherDisplay:10.37,2013-05-08 06:41:00,
2013-05-08 02:46:00,55.2,52.6,30.11,SSE,163,0.0,0.0,91,0.00,BKN,OVC,0.00,0.0,WeatherDisplay:10.37,2013-05-08 06:46:00,
2013-05-08 02:51:00,55.2,52.6,30.11,SSE,163,0.0,0.0,91,0.00,BKN,OVC,0.00,0.0,WeatherDisplay:10.37,2013-05-08 06:51:00,
2013-05-08 02:56:00,55.2,52.6,30.11,South,177,0.0,0.0,91,0.00,BKN,OVC,0.00,0.0,WeatherDisplay:10.37,2013-05-08 06:56:00,
2013-05-08 03:01:00,55.2,52.6,30.11,South,177,0.0,0.0,91,0.00,OVC,,0.00,0.0,WeatherDisplay:10.37,2013-05-08 07:01:00,
2013-05-08 03:06:00,55.4,52.8,30.11,ESE,112,5.8,0.0,91,0.00,OVC,,0.00,0.0,WeatherDisplay:10.37,2013-05-08 07:06:00,
2013-05-08 03:11:00,55.9,53.6,30.11,SSE,152,0.0,0.0,92,0.00,OVC,,0.00,0.0,WeatherDisplay:10.37,2013-05-08 07:11:00,
2013-05-08 03:16:00,56.3,54.3,30.11,SE,146,0.0,0.0,93,0.00,OVC,,0.00,0.0,WeatherDisplay:10.37,2013-05-08 07:16:00,
2013-05-08 03:21:00,56.8,54.8,30.11,SE,140,0.0,0.0,93,0.00,OVC,,0.00,0.0,WeatherDisplay:10.37,2013-05-08 07:21:00,
2013-05-08 03:26:00,57.2,54.9,30.11,East,96,0.0,0.0,92,0.00,OVC,,0.00,0.0,WeatherDisplay:10.37,2013-05-08 07:26:00,
2013-05-08 03:31:00,57.4,55.1,30.11,East,94,0.0,0.0,92,0.00,OVC,,0.00,0.0,WeatherDisplay:10.37,2013-05-08 07:31:00,
2013-05-08 03:36:00,57.4,55.1,30.11,SSE,150,3.5,3.5,92,0.00,OVC,,0.00,0.0,WeatherDisplay:10.37,2013-05-08 07:36:00,
2013-05-08 03:41:00,57.6,55.3,30.11,ESE,118,0.0,0.0,92,0.00,OVC,,0.00,0.0,WeatherDisplay:10.37,2013-05-08 07:41:00,
2013-05-08 03:46:00,57.6,55.3,30.11,ESE,112,0.0,0.0,92,0.00,OVC,,0.00,0.0,WeatherDisplay:10.37,2013-05-08 07:46:00,
2013-05-08 03:51:00,57.6,55.3,30.11,ESE,123,0.0,0.0,92,0.00,OVC,,0.00,0.0,WeatherDisplay:10.37,2013-05-08 07:51:00,
2013-05-08 03:56:00,57.6,55.6,30.08,SSE,158,0.0,0.0,93,0.00,OVC,,0.00,0.0,WeatherDisplay:10.37,2013-05-08 07:56:00,
2013-05-08 04:01:00,57.6,55.6,30.08,SSW,193,0.0,0.0,93,0.00,OVC,,0.00,0.0,WeatherDisplay:10.37,2013-05-08 08:01:00,
2013-05-08 04:06:00,57.6,55.6,30.08,SE,133,0.0,0.0,93,0.00,OVC,,0.00,0.0,WeatherDisplay:10.37,2013-05-08 08:06:00,
2013-05-08 04:11:00,57.6,55.6,30.11,SE,134,0.0,0.0,93,0.00,OVC,,0.00,0.0,WeatherDisplay:10.37,2013-05-08 08:11:00,
2013-05-08 04:16:00,57.6,55.6,30.11,SSE,156,0.0,0.0,93,0.00,,OVC,0.00,0.0,WeatherDisplay:10.37,2013-05-08 08:16:00,
2013-05-08 04:21:00,57.6,55.6,30.11,SE,139,0.0,0.0,93,0.00,,OVC,0.00,0.0,WeatherDisplay:10.37,2013-05-08 08:21:00,
2013-05-08 04:26:00,57.4,55.4,30.11,SE,139,0.0,0.0,93,0.00,,OVC,0.00,0.0,WeatherDisplay:10.37,2013-05-08 08:26:00,
2013-05-08 04:31:00,57.4,55.4,30.11,SE,139,0.0,0.0,93,0.00,,OVC,0.00,0.0,WeatherDisplay:10.37,2013-05-08 08:31:00,
2013-05-08 04:36:00,57.4,55.4,30.11,SE,139,0.0,0.0,93,0.00,,OVC,0.00,0.0,WeatherDisplay:10.37,2013-05-08 08:36:00,
2013-05-08 04:41:00,57.2,55.2,30.11,SE,139,0.0,0.0,93,0.00,,OVC,0.00,0.0,WeatherDisplay:10.37,2013-05-08 08:41:00,
2013-05-08 04:46:00,57.2,55.2,30.11,SW,216,0.0,0.0,93,0.00,,OVC,0.00,0.0,WeatherDisplay:10.37,2013-05-08 08:46:00,
2013-05-08 04:51:00,57.2,55.2,30.11,South,185,0.0,0.0,93,0.00,,OVC,0.00,0.0,WeatherDisplay:10.37,2013-05-08 08:51:00,
2013-05-08 04:56:00,57.2,55.5,30.11,South,185,0.0,0.0,94,0.00,,OVC,0.00,0.0,WeatherDisplay:10.37,2013-05-08 08:56:00,
2013-05-08 05:01:00,57.2,55.5,30.11,South,180,0.0,0.0,94,0.00,,OVC,0.00,0.0,WeatherDisplay:10.37,2013-05-08 09:01:00,
2013-05-08 05:06:00,57.2,55.5,30.11,South,182,0.0,0.0,94,0.00,,OVC,0.00,0.0,WeatherDisplay:10.37,2013-05-08 09:06:00,
2013-05-08 05:11:00,57.2,55.5,30.11,South,182,0.0,0.0,94,0.00,,OVC,0.00,0.0,WeatherDisplay:10.37,2013-05-08 09:11:00,
2013-05-08 05:16:00,57.2,55.5,30.11,South,182,0.0,0.0,94,0.00,OVC,,0.00,0.0,WeatherDisplay:10.37,2013-05-08 09:16:00,
2013-05-08 05:21:00,57.2,55.5,30.11,South,182,0.0,0.0,94,0.00,OVC,,0.00,0.0,WeatherDisplay:10.37,2013-05-08 09:21:00,
2013-05-08 05:25:00,57.2,55.5,30.11,South,182,0.0,0.0,94,0.00,OVC,,0.00,0.0,WeatherDisplay:10.37,2013-05-08 09:25:00,
2013-05-08 05:30:00,57.2,55.5,30.11,South,182,0.0,0.0,94,0.00,OVC,,0.00,0.0,WeatherDisplay:10.37,2013-05-08 09:30:00,
2013-05-08 05:35:00,57.2,55.5,30.11,South,182,0.0,0.0,94,0.00,OVC,,0.00,0.0,WeatherDisplay:10.37,2013-05-08 09:35:00,
2013-05-08 05:40:00,57.2,55.5,30.11,South,182,0.0,0.0,94,0.00,OVC,,0.00,0.0,WeatherDisplay:10.37,2013-05-08 09:40:00,
2013-05-08 05:45:00,57.2,55.5,30.11,South,182,0.0,0.0,94,0.00,OVC,,0.00,0.0,WeatherDisplay:10.37,2013-05-08 09:45:00,
2013-05-08 05:50:00,57.2,55.5,30.11,South,182,0.0,0.0,94,0.00,OVC,,0.00,0.0,WeatherDisplay:10.37,2013-05-08 09:50:00,
2013-05-08 05:55:00,57.2,55.5,30.11,South,182,0.0,0.0,94,0.00,OVC,,0.00,0.0,WeatherDisplay:10.37,2013-05-08 09:55:00,
2013-05-08 06:00:00,57.2,55.8,30.11,South,182,0.0,0.0,95,0.00,OVC,,0.00,0.0,WeatherDisplay:10.37,2013-05-08 10:00:00,
2013-05-08 06:05:00,57.2,55.8,30.11,SSE,163,0.0,0.0,95,0.00,OVC,,0.00,0.0,WeatherDisplay:10.37,2013-05-08 10:05:00,
2013-05-08 06:10:00,57.2,55.8,30.14,ESE,123,0.0,0.0,95,0.00,OVC,,0.00,0.0,WeatherDisplay:10.37,2013-05-08 10:10:00,
2013-05-08 06:15:00,57.2,55.8,30.14,ESE,123,0.0,0.0,95,0.00,OVC,,0.00,0.0,WeatherDisplay:10.37,2013-05-08 10:15:00,
2013-05-08 06:20:00,57.2,55.8,30.14,ESE,123,0.0,0.0,95,0.00,OVC,,0.00,0.0,WeatherDisplay:10.37,2013-05-08 10:20:00,
2013-05-08 06:25:00,57.2,55.8,30.14,ESE,123,0.0,0.0,95,0.00,OVC,,0.00,0.0,WeatherDisplay:10.37,2013-05-08 10:25:00,
2013-05-08 06:30:00,57.2,56.1,30.14,ESE,123,0.0,0.0,96,0.00,OVC,,0.00,0.0,WeatherDisplay:10.37,2013-05-08 10:30:00,
2013-05-08 06:35:00,57.2,56.1,30.14,ESE,123,0.0,0.0,96,0.00,OVC,,0.00,0.0,WeatherDisplay:10.37,2013-05-08 10:35:00,
2013-05-08 06:40:00,57.2,56.1,30.14,ESE,123,0.0,0.0,96,0.00,OVC,,0.00,0.0,WeatherDisplay:10.37,2013-05-08 10:40:00,
2013-05-08 06:45:00,57.2,56.1,30.14,ESE,123,0.0,0.0,96,0.00,OVC,,0.00,0.0,WeatherDisplay:10.37,2013-05-08 10:45:00,
2013-05-08 06:50:00,57.2,56.1,30.14,ESE,123,0.0,0.0,96,0.00,OVC,,0.00,0.0,WeatherDisplay:10.37,2013-05-08 10:50:00,
2013-05-08 06:55:00,57.4,56.2,30.14,WNW,302,0.0,0.0,96,0.00,OVC,,0.00,0.0,WeatherDisplay:10.37,2013-05-08 10:55:00,
2013-05-08 07:00:00,57.4,56.2,30.14,WNW,302,0.0,0.0,96,0.00,OVC,,0.00,0.0,WeatherDisplay:10.37,2013-05-08 11:00:00,
2013-05-08 07:05:00,57.6,56.4,30.14,WNW,303,0.0,0.0,96,0.00,OVC,,0.00,0.0,WeatherDisplay:10.37,2013-05-08 11:05:00,
2013-05-08 07:10:00,57.6,56.4,30.14,NNW,333,0.0,0.0,96,0.00,OVC,,0.00,0.0,WeatherDisplay:10.37,2013-05-08 11:10:00,
2013-05-08 07:15:00,57.6,56.4,30.14,NNW,332,0.0,0.0,96,0.00,OVC,,0.00,0.0,WeatherDisplay:10.37,2013-05-08 11:15:00,
2013-05-08 07:20:00,57.7,56.6,30.14,NE,37,0.0,0.0,96,0.00,OVC,,0.00,0.0,WeatherDisplay:10.37,2013-05-08 11:20:00,
2013-05-08 07:25:00,57.7,56.9,30.14,NE,37,0.0,0.0,97,0.00,OVC,,0.00,0.0,WeatherDisplay:10.37,2013-05-08 11:25:00,
2013-05-08 07:30:00,57.9,57.1,30.14,NE,37,0.0,0.0,97,0.00,OVC,,0.00,0.0,WeatherDisplay:10.37,2013-05-08 11:30:00,
2013-05-08 07:35:00,58.1,57.3,30.14,North,5,0.0,0.0,97,0.00,OVC,,0.00,0.0,WeatherDisplay:10.37,2013-05-08 11:35:00,
2013-05-08 07:40:00,58.3,57.4,30.14,North,354,0.0,0.0,97,0.00,OVC,,0.00,0.0,WeatherDisplay:10.37,2013-05-08 11:40:00,
2013-05-08 07:45:00,58.5,57.6,30.14,North,355,0.0,0.0,97,0.00,OVC,,0.00,0.0,WeatherDisplay:10.37,2013-05-08 11:45:00,
2013-05-08 07:50:00,58.8,58.0,30.14,North,353,0.0,0.0,97,0.00,OVC,,0.00,0.0,WeatherDisplay:10.37,2013-05-08 11:50:00,
2013-05-08 07:55:00,59.0,58.2,30.14,NNW,340,0.0,0.0,97,0.00,OVC,,0.00,0.0,WeatherDisplay:10.37,2013-05-08 11:55:00,
2013-05-08 08:00:00,59.4,58.5,30.14,NNW,339,0.0,0.0,97,0.00,OVC,,0.00,0.0,WeatherDisplay:10.37,2013-05-08 12:00:00,
2013-05-08 08:05:00,59.9,59.0,30.14,NNW,342,0.0,0.0,97,0.00,OVC,,0.00,0.0,WeatherDisplay:10.37,2013-05-08 12:05:00,
2013-05-08 08:10:00,60.3,59.4,30.14,North,4,0.0,0.0,97,0.00,OVC,,0.00,0.0,WeatherDisplay:10.37,2013-05-08 12:10:00,
2013-05-08 08:15:00,60.4,59.6,30.14,North,351,0.0,0.0,97,0.00,OVC,,0.00,0.0,WeatherDisplay:10.37,2013-05-08 12:15:00,
2013-05-08 08:20:00,60.8,59.9,30.14,North,352,0.0,0.0,97,0.00,OVC,,0.00,0.0,WeatherDisplay:10.37,2013-05-08 12:20:00,
2013-05-08 08:25:00,61.3,60.5,30.14,NNW,347,0.0,0.0,97,0.00,OVC,,0.00,0.0,WeatherDisplay:10.37,2013-05-08 12:25:00,
2013-05-08 08:30:00,61.5,60.7,30.14,NE,39,0.0,0.0,97,0.00,OVC,,0.00,0.0,WeatherDisplay:10.37,2013-05-08 12:30:00,
2013-05-08 08:35:00,61.9,61.0,30.14,NNE,17,0.0,0.0,97,0.00,OVC,,0.00,0.0,WeatherDisplay:10.37,2013-05-08 12:35:00,
2013-05-08 08:40:00,62.2,61.4,30.14,SE,130,0.0,0.0,97,0.00,OVC,,0.00,0.0,WeatherDisplay:10.37,2013-05-08 12:40:00,
2013-05-08 08:45:00,62.6,61.7,30.14,ENE,78,0.0,0.0,97,0.00,OVC,,0.00,0.0,WeatherDisplay:10.37,2013-05-08 12:45:00,
2013-05-08 08:50:00,62.8,61.9,30.14,NW,306,0.0,0.0,97,0.00,OVC,,0.00,0.0,WeatherDisplay:10.37,2013-05-08 12:50:00,
2013-05-08 08:55:00,63.1,62.3,30.14,WSW,252,0.0,0.0,97,0.00,OVC,,0.00,0.0,WeatherDisplay:10.37,2013-05-08 12:55:00,
2013-05-08 09:00:00,63.5,62.6,30.14,NNE,28,0.0,0.0,97,0.00,OVC,,0.00,0.0,WeatherDisplay:10.37,2013-05-08 13:00:00,
2013-05-08 09:05:00,63.9,63.0,30.14,SSE,166,0.0,0.0,97,0.00,OVC,,0.00,0.0,WeatherDisplay:10.37,2013-05-08 13:05:00,
2013-05-08 09:10:00,64.0,62.9,30.14,SW,217,0.0,0.0,96,0.00,OVC,,0.00,0.0,WeatherDisplay:10.37,2013-05-08 13:10:00,
2013-05-08 09:15:00,64.2,63.1,30.14,SE,138,0.0,0.0,96,0.00,OVC,,0.00,0.0,WeatherDisplay:10.37,2013-05-08 13:15:00,
2013-05-08 09:20:00,64.8,63.6,30.14,SSE,150,0.0,0.0,96,0.00,OVC,,0.00,0.0,WeatherDisplay:10.37,2013-05-08 13:20:00,
2013-05-08 09:25:00,65.3,64.1,30.14,ESE,107,3.5,3.5,96,0.00,OVC,,0.00,0.0,WeatherDisplay:10.37,2013-05-08 13:25:00,
2013-05-08 09:30:00,65.8,64.7,30.14,ESE,107,0.0,0.0,96,0.00,OVC,,0.00,0.0,WeatherDisplay:10.37,2013-05-08 13:30:00,
2013-05-08 09:35:00,66.4,64.9,30.14,ESE,121,5.8,5.8,95,0.00,OVC,,0.00,0.0,WeatherDisplay:10.37,2013-05-08 13:35:00,
2013-05-08 09:40:00,66.6,64.8,30.14,South,186,3.5,3.5,94,0.00,OVC,,0.00,0.0,WeatherDisplay:10.37,2013-05-08 13:40:00,
2013-05-08 09:45:00,66.7,64.7,30.14,SSE,155,4.6,4.6,93,0.00,OVC,,0.00,0.0,WeatherDisplay:10.37,2013-05-08 13:45:00,
2013-05-08 09:50:00,66.9,64.2,30.14,ESE,109,5.8,5.8,91,0.00,BKN,OVC,0.00,0.0,WeatherDisplay:10.37,2013-05-08 13:50:00,
2013-05-08 09:55:00,67.3,64.2,30.14,SE,135,6.9,6.9,90,0.00,BKN,OVC,0.00,0.0,WeatherDisplay:10.37,2013-05-08 13:55:00,
2013-05-08 10:00:00,67.3,63.3,30.14,South,188,5.8,5.8,87,0.00,BKN,OVC,0.00,0.0,WeatherDisplay:10.37,2013-05-08 14:00:00,
2013-05-08 10:05:00,67.5,63.1,30.14,SE,137,3.5,3.6,86,0.00,BKN,OVC,0.00,0.0,WeatherDisplay:10.37,2013-05-08 14:05:00,
2013-05-08 10:10:00,67.6,62.3,30.14,SSE,149,5.8,5.8,83,0.00,BKN,OVC,0.00,0.0,WeatherDisplay:10.37,2013-05-08 14:10:00,
2013-05-08 10:15:00,67.8,61.4,30.14,SSE,152,5.8,5.8,80,0.00,BKN,OVC,0.00,0.0,WeatherDisplay:10.37,2013-05-08 14:15:00,
2013-05-08 10:20:00,68.4,61.9,30.14,South,189,5.8,5.8,80,0.00,BKN,OVC,0.00,0.0,WeatherDisplay:10.37,2013-05-08 14:20:00,
2013-05-08 10:25:00,68.7,61.2,30.14,SE,130,8.1,8.1,77,0.00,BKN,OVC,0.00,0.0,WeatherDisplay:10.37,2013-05-08 14:25:00,
2013-05-08 10:30:00,69.3,61.7,30.14,SW,236,0.0,0.0,77,0.00,BKN,OVC,0.00,0.0,WeatherDisplay:10.37,2013-05-08 14:30:00,
2013-05-08 10:35:00,70.0,62.1,30.14,ESE,116,5.8,5.8,76,0.00,BKN,OVC,0.00,0.0,WeatherDisplay:10.37,2013-05-08 14:35:00,
2013-05-08 10:40:00,70.7,62.4,30.14,ESE,118,3.5,3.6,75,0.00,BKN,OVC,0.00,0.0,WeatherDisplay:10.37,2013-05-08 14:40:00,
2013-05-08 10:45:00,70.7,61.6,30.14,SSW,203,3.5,3.5,73,0.00,BKN,OVC,0.00,0.0,WeatherDisplay:10.37,2013-05-08 14:45:00,
2013-05-08 10:50:00,70.3,60.9,30.14,ENE,67,3.5,0.0,72,0.00,BKN,OVC,0.00,0.0,WeatherDisplay:10.37,2013-05-08 14:50:00,
2013-05-08 10:55:00,69.8,60.0,30.14,SSW,201,3.5,3.5,71,0.00,BKN,OVC,0.00,0.0,WeatherDisplay:10.37,2013-05-08 14:55:00,
2013-05-08 11:00:00,69.4,60.0,30.14,SE,124,3.5,3.5,72,0.00,BKN,OVC,0.00,0.0,WeatherDisplay:10.37,2013-05-08 15:00:00,
2013-05-08 11:05:00,69.3,60.6,30.14,SE,141,3.5,0.0,74,0.00,BKN,OVC,0.00,0.0,WeatherDisplay:10.37,2013-05-08 15:05:00,
2013-05-08 11:10:00,69.3,61.0,30.14,ESE,121,3.5,3.5,75,0.00,BKN,OVC,0.00,0.0,WeatherDisplay:10.37,2013-05-08 15:10:00,
2013-05-08 11:15:00,69.4,61.5,30.14,SE,140,0.0,0.0,76,0.00,BKN,OVC,0.00,0.0,WeatherDisplay:10.37,2013-05-08 15:15:00,
2013-05-08 11:20:00,70.2,62.2,30.14,SSE,148,5.8,5.8,76,0.00,BKN,OVC,0.00,0.0,WeatherDisplay:10.37,2013-05-08 15:20:00,
2013-05-08 11:25:00,70.5,62.6,30.14,East,88,5.8,5.8,76,0.00,BKN,OVC,0.00,0.0,WeatherDisplay:10.37,2013-05-08 15:25:00,
2013-05-08 11:30:00,70.9,62.6,30.14,SSE,164,3.5,3.5,75,0.00,BKN,OVC,0.00,0.0,WeatherDisplay:10.37,2013-05-08 15:30:00,
2013-05-08 11:35:00,71.1,62.0,30.14,SE,145,8.1,8.1,73,0.00,BKN,OVC,0.00,0.0,WeatherDisplay:10.37,2013-05-08 15:35:00,
2013-05-08 11:40:00,71.2,61.0,30.11,SE,144,8.1,8.1,70,0.00,BKN,OVC,0.00,0.0,WeatherDisplay:10.37,2013-05-08 15:40:00,
2013-05-08 11:45:00,70.9,59.4,30.11,SE,126,12.7,12.7,67,0.00,BKN,OVC,0.00,0.0,WeatherDisplay:10.37,2013-05-08 15:45:00,
2013-05-08 11:50:00,70.0,59.3,30.11,ESE,105,8.1,8.1,69,0.00,BKN,OVC,0.00,0.0,WeatherDisplay:10.37,2013-05-08 15:50:00,
2013-05-08 11:55:00,68.4,58.6,30.14,SE,127,8.1,8.1,71,0.00,BKN,OVC,0.00,0.0,WeatherDisplay:10.37,2013-05-08 15:55:00,
2013-05-08 12:00:00,67.5,58.5,30.14,SE,146,0.0,0.0,73,0.00,BKN,OVC,0.00,0.0,WeatherDisplay:10.37,2013-05-08 16:00:00,
2013-05-08 12:05:00,66.7,58.6,30.14,SSW,198,2.3,2.3,75,0.00,BKN,OVC,0.00,0.0,WeatherDisplay:10.37,2013-05-08 16:05:00,
2013-05-08 12:10:00,66.6,59.1,30.11,SE,136,4.6,4.6,77,0.00,BKN,OVC,0.00,0.0,WeatherDisplay:10.37,2013-05-08 16:10:00,
2013-05-08 12:15:00,66.7,60.0,30.11,SSE,166,3.5,3.5,79,0.00,BKN,OVC,0.00,0.0,WeatherDisplay:10.37,2013-05-08 16:15:00,
2013-05-08 12:20:00,66.7,60.4,30.11,SSW,207,5.8,5.8,80,0.00,BKN,OVC,0.00,0.0,WeatherDisplay:10.37,2013-05-08 16:20:00,
2013-05-08 12:25:00,67.1,61.1,30.11,WSW,248,2.3,0.0,81,0.00,BKN,OVC,0.00,0.0,WeatherDisplay:10.37,2013-05-08 16:25:00,
2013-05-08 12:30:00,67.3,61.9,30.11,SE,144,5.8,5.8,83,0.00,BKN,OVC,0.00,0.0,WeatherDisplay:10.37,2013-05-08 16:30:00,
2013-05-08 12:35:00,67.6,62.6,30.11,SSE,153,3.5,0.0,84,0.00,BKN,OVC,0.00,0.0,WeatherDisplay:10.37,2013-05-08 16:35:00,
2013-05-08 12:40:00,68.0,63.0,30.11,South,188,9.2,9.2,84,0.00,BKN,OVC,0.00,0.0,WeatherDisplay:10.37,2013-05-08 16:40:00,
2013-05-08 12:45:00,68.4,63.3,30.11,South,173,10.4,10.4,84,0.00,BKN,OVC,0.00,0.0,WeatherDisplay:10.37,2013-05-08 16:45:00,
2013-05-08 12:50:00,68.7,63.7,30.11,East,83,6.3,6.3,84,0.00,BKN,OVC,0.00,0.0,WeatherDisplay:10.37,2013-05-08 16:50:00,
2013-05-08 12:55:00,69.1,62.6,30.11,SSE,154,6.9,6.9,80,0.00,BKN,OVC,0.00,0.0,WeatherDisplay:10.37,2013-05-08 16:55:00,
2013-05-08 13:00:00,69.1,61.2,30.11,ESE,113,10.4,10.4,76,0.00,BKN,OVC,0.00,0.0,WeatherDisplay:10.37,2013-05-08 17:00:00,
2013-05-08 13:05:00,69.3,61.4,30.11,ESE,109,8.1,8.1,76,0.00,BKN,OVC,0.00,0.0,WeatherDisplay:10.37,2013-05-08 17:05:00,
2013-05-08 13:10:00,69.4,61.2,30.11,SSE,149,8.1,8.1,75,0.00,BKN,OVC,0.00,0.0,WeatherDisplay:10.37,2013-05-08 17:10:00,
2013-05-08 13:15:00,69.8,61.1,30.11,ESE,112,12.7,12.7,74,0.00,BKN,OVC,0.00,0.0,WeatherDisplay:10.37,2013-05-08 17:15:00,
2013-05-08 13:20:00,70.0,60.1,30.11,SE,144,3.5,3.5,71,0.00,BKN,OVC,0.00,0.0,WeatherDisplay:10.37,2013-05-08 17:20:00,
2013-05-08 13:25:00,70.2,59.5,30.11,South,177,9.2,9.2,69,0.00,BKN,OVC,0.00,0.0,WeatherDisplay:10.37,2013-05-08 17:25:00,
2013-05-08 13:30:00,70.0,59.3,30.08,SE,132,5.8,5.8,69,0.00,BKN,OVC,0.00,0.0,WeatherDisplay:10.37,2013-05-08 17:30:00,
2013-05-08 13:35:00,69.8,58.8,30.08,SE,135,10.4,10.4,68,0.00,BKN,OVC,0.00,0.0,WeatherDisplay:10.37,2013-05-08 17:35:00,
2013-05-08 13:40:00,69.1,58.9,30.11,SE,139,8.1,8.1,70,0.00,BKN,OVC,0.00,0.0,WeatherDisplay:10.37,2013-05-08 17:40:00,
2013-05-08 13:45:00,68.4,58.6,30.11,South,173,3.5,4.5,71,0.00,BKN,OVC,0.00,0.0,WeatherDisplay:10.37,2013-05-08 17:45:00,
2013-05-08 13:50:00,68.4,59.4,30.11,East,93,5.8,5.8,73,0.00,BKN,OVC,0.00,0.0,WeatherDisplay:10.37,2013-05-08 17:50:00,
2013-05-08 13:55:00,68.7,60.1,30.08,SSE,159,11.5,11.5,74,0.00,BKN,OVC,0.00,0.0,WeatherDisplay:10.37,2013-05-08 17:55:00,
2013-05-08 14:00:00,69.4,60.8,30.08,SE,128,8.1,8.1,74,0.00,BKN,OVC,0.00,0.0,WeatherDisplay:10.37,2013-05-08 18:00:00,
2013-05-08 14:05:00,70.0,60.9,30.08,SSE,166,6.9,6.9,73,0.00,-RA,OVC,0.00,0.0,WeatherDisplay:10.37,2013-05-08 18:05:00,
2013-05-08 14:10:00,70.2,59.9,30.08,SSE,151,9.2,9.2,70,0.00,-RA,OVC,0.00,0.0,WeatherDisplay:10.37,2013-05-08 18:10:00,
2013-05-08 14:15:00,69.8,59.2,30.08,SSE,157,12.7,12.7,69,0.00,-RA,OVC,0.00,0.0,WeatherDisplay:10.37,2013-05-08 18:15:00,
2013-05-08 14:20:00,69.1,58.9,30.08,ESE,121,5.8,5.8,70,0.00,-RA,OVC,0.00,0.0,WeatherDisplay:10.37,2013-05-08 18:20:00,
2013-05-08 14:25:00,68.7,59.3,30.08,SE,143,8.1,8.1,72,0.00,-RA,OVC,0.00,0.0,WeatherDisplay:10.37,2013-05-08 18:25:00,
2013-05-08 14:30:00,68.5,59.2,30.08,SE,124,9.2,9.2,72,0.00,-RA,OVC,0.00,0.0,WeatherDisplay:10.37,2013-05-08 18:30:00,
2013-05-08 14:35:00,68.5,58.8,30.08,SE,146,11.5,11.5,71,0.00,-RA,OVC,0.00,0.0,WeatherDisplay:10.37,2013-05-08 18:35:00,
2013-05-08 14:40:00,68.5,58.8,30.08,SE,132,9.2,9.2,71,0.04,-RA,OVC,0.04,0.0,WeatherDisplay:10.37,2013-05-08 18:40:00,
2013-05-08 14:45:00,68.7,58.9,30.08,SE,139,5.8,5.8,71,0.04,-RA,OVC,0.04,0.0,WeatherDisplay:10.37,2013-05-08 18:45:00,
2013-05-08 14:50:00,68.7,58.9,30.08,ESE,103,4.6,4.6,71,0.04,-RA,OVC,0.04,0.0,WeatherDisplay:10.37,2013-05-08 18:50:00,
2013-05-08 14:55:00,68.9,59.1,30.08,SSE,147,5.8,5.8,71,0.04,-RA,OVC,0.04,0.0,WeatherDisplay:10.37,2013-05-08 18:55:00,
2013-05-08 15:00:00,69.1,59.3,30.08,SE,126,9.2,9.2,71,0.04,-RA,OVC,0.04,0.0,WeatherDisplay:10.37,2013-05-08 19:00:00,
2013-05-08 15:05:00,68.9,59.1,30.08,ESE,115,5.8,5.8,71,0.04,OVC,,0.04,0.0,WeatherDisplay:10.37,2013-05-08 19:05:00,
2013-05-08 15:10:00,68.5,59.2,30.06,ESE,119,5.8,5.8,72,0.04,OVC,,0.04,0.0,WeatherDisplay:10.37,2013-05-08 19:10:00,
2013-05-08 15:15:00,68.5,59.5,30.06,SSE,147,5.8,5.8,73,0.04,OVC,,0.04,0.0,WeatherDisplay:10.37,2013-05-08 19:15:00,
2013-05-08 15:20:00,68.5,59.9,30.06,ESE,115,8.1,8.1,74,0.04,OVC,,0.04,0.0,WeatherDisplay:10.37,2013-05-08 19:20:00,
2013-05-08 15:25:00,68.7,59.7,30.06,SSE,153,8.1,8.1,73,0.04,OVC,,0.04,0.0,WeatherDisplay:10.37,2013-05-08 19:25:00,
2013-05-08 15:30:00,68.9,59.9,30.06,SSE,152,5.8,5.8,73,0.04,OVC,,0.04,0.0,WeatherDisplay:10.37,2013-05-08 19:30:00,
2013-05-08 15:35:00,69.1,59.7,30.06,SE,125,12.7,12.7,72,0.04,OVC,,0.04,0.0,WeatherDisplay:10.37,2013-05-08 19:35:00,
2013-05-08 15:40:00,69.3,59.5,30.06,SE,126,13.8,13.8,71,0.04,OVC,,0.04,0.0,WeatherDisplay:10.37,2013-05-08 19:40:00,
2013-05-08 15:45:00,69.4,59.6,30.06,East,92,5.8,5.8,71,0.00,OVC,,0.04,0.0,WeatherDisplay:10.37,2013-05-08 19:45:00,
2013-05-08 15:50:00,69.4,59.6,30.06,ESE,120,9.2,9.2,71,0.00,OVC,,0.04,0.0,WeatherDisplay:10.37,2013-05-08 19:50:00,
2013-05-08 15:55:00,69.3,59.1,30.06,SSE,156,5.8,5.8,70,0.00,OVC,,0.04,0.0,WeatherDisplay:10.37,2013-05-08 19:55:00,
2013-05-08 16:00:00,69.1,58.9,30.06,SSE,155,5.8,5.8,70,0.00,OVC,,0.04,0.0,WeatherDisplay:10.37,2013-05-08 20:00:00,
2013-05-08 16:05:00,68.9,58.7,30.06,South,173,5.8,5.8,70,0.00,OVC,,0.04,0.0,WeatherDisplay:10.37,2013-05-08 20:05:00,
2013-05-08 16:10:00,68.9,59.1,30.06,SE,140,8.1,8.1,71,0.00,OVC,,0.04,0.0,WeatherDisplay:10.37,2013-05-08 20:10:00,
2013-05-08 16:15:00,68.7,59.3,30.06,SE,141,8.1,8.1,72,0.00,OVC,,0.04,0.0,WeatherDisplay:10.37,2013-05-08 20:15:00,
2013-05-08 16:20:00,68.7,59.3,30.06,South,189,10.4,10.4,72,0.00,OVC,,0.04,0.0,WeatherDisplay:10.37,2013-05-08 20:20:00,
2013-05-08 16:25:00,68.7,59.3,30.06,SSE,161,8.1,8.1,72,0.00,OVC,,0.04,0.0,WeatherDisplay:10.37,2013-05-08 20:25:00,
2013-05-08 16:30:00,68.7,59.3,30.06,SE,139,9.2,9.2,72,0.00,OVC,,0.04,0.0,WeatherDisplay:10.37,2013-05-08 20:30:00,
2013-05-08 16:35:00,68.7,59.3,30.06,ESE,113,9.2,9.2,72,0.00,OVC,,0.04,0.0,WeatherDisplay:10.37,2013-05-08 20:35:00,
2013-05-08 16:40:00,68.5,59.2,30.06,South,173,8.1,8.1,72,0.00,OVC,,0.04,0.0,WeatherDisplay:10.37,2013-05-08 20:40:00,
2013-05-08 16:45:00,68.5,59.5,30.06,ESE,119,12.7,12.7,73,0.00,OVC,,0.04,0.0,WeatherDisplay:10.37,2013-05-08 20:45:00,
2013-05-08 16:50:00,68.4,59.4,30.06,SSE,164,8.1,8.1,73,0.00,OVC,,0.04,0.0,WeatherDisplay:10.37,2013-05-08 20:50:00,
2013-05-08 16:55:00,68.2,59.6,30.06,ESE,123,11.5,11.5,74,0.00,OVC,,0.04,0.0,WeatherDisplay:10.37,2013-05-08 20:55:00,
2013-05-08 17:00:00,67.8,60.0,30.06,SSE,166,17.3,17.3,76,0.00,OVC,,0.04,0.0,WeatherDisplay:10.37,2013-05-08 21:00:00,
2013-05-08 17:05:00,67.3,59.8,30.06,SE,132,5.8,8.7,77,0.00,OVC,,0.04,0.0,WeatherDisplay:10.37,2013-05-08 21:05:00,
2013-05-08 17:10:00,66.6,60.2,30.06,ESE,123,10.9,10.9,80,0.00,OVC,,0.04,0.0,WeatherDisplay:10.37,2013-05-08 21:10:00,
2013-05-08 17:15:00,66.2,59.8,30.06,SSE,156,11.5,11.5,80,0.00,OVC,,0.04,0.0,WeatherDisplay:10.37,2013-05-08 21:15:00,
2013-05-08 17:20:00,66.0,60.7,30.06,ESE,122,8.1,8.1,83,0.00,OVC,,0.04,0.0,WeatherDisplay:10.37,2013-05-08 21:20:00,
2013-05-08 17:25:00,65.8,60.9,30.06,SSE,164,8.1,8.1,84,0.00,OVC,,0.04,0.0,WeatherDisplay:10.37,2013-05-08 21:25:00,
2013-05-08 17:30:00,65.7,60.7,30.06,SSW,199,5.8,6.7,84,0.00,OVC,,0.04,0.0,WeatherDisplay:10.37,2013-05-08 21:30:00,
2013-05-08 17:35:00,65.7,60.7,30.06,SE,132,10.4,10.4,84,0.00,OVC,,0.04,0.0,WeatherDisplay:10.37,2013-05-08 21:35:00,
2013-05-08 17:40:00,65.7,60.7,30.06,ESE,118,10.4,10.4,84,0.00,OVC,,0.04,0.0,WeatherDisplay:10.37,2013-05-08 21:40:00,
2013-05-08 17:45:00,65.7,60.7,30.06,ESE,117,4.6,4.6,84,0.00,OVC,,0.04,0.0,WeatherDisplay:10.37,2013-05-08 21:45:00,
2013-05-08 17:50:00,65.7,60.7,30.06,SSE,160,5.8,5.8,84,0.00,OVC,,0.04,0.0,WeatherDisplay:10.37,2013-05-08 21:50:00,
2013-05-08 17:55:00,65.8,60.9,30.06,SE,129,5.8,5.8,84,0.00,OVC,,0.04,0.0,WeatherDisplay:10.37,2013-05-08 21:55:00,
2013-05-08 18:00:00,65.8,60.9,30.06,ESE,121,3.5,3.5,84,0.00,OVC,,0.04,0.0,WeatherDisplay:10.37,2013-05-08 22:00:00,
2013-05-08 18:05:00,65.8,60.9,30.06,SSE,156,5.8,0.0,84,0.00,OVC,,0.04,0.0,WeatherDisplay:10.37,2013-05-08 22:05:00,
2013-05-08 18:10:00,65.7,60.7,30.06,SE,141,5.8,5.8,84,0.00,OVC,,0.04,0.0,WeatherDisplay:10.37,2013-05-08 22:10:00,
2013-05-08 18:15:00,65.3,60.3,30.06,SE,128,5.8,5.8,84,0.00,OVC,,0.04,0.0,WeatherDisplay:10.37,2013-05-08 22:15:00,
2013-05-08 18:20:00,64.9,60.0,30.06,SE,131,5.8,5.8,84,0.00,OVC,,0.04,0.0,WeatherDisplay:10.37,2013-05-08 22:20:00,
2013-05-08 18:25:00,64.4,60.1,30.03,ESE,123,5.8,5.8,86,0.00,OVC,,0.04,0.0,WeatherDisplay:10.37,2013-05-08 22:25:00,
2013-05-08 18:30:00,64.2,60.3,30.03,SE,138,3.5,0.0,87,0.00,OVC,,0.04,0.0,WeatherDisplay:10.37,2013-05-08 22:30:00,
2013-05-08 18:35:00,64.2,60.3,30.03,SE,139,3.5,3.5,87,0.00,OVC,,0.04,0.0,WeatherDisplay:10.37,2013-05-08 22:35:00,
2013-05-08 18:40:00,64.2,60.6,30.03,ESE,111,2.3,2.7,88,0.00,OVC,,0.04,0.0,WeatherDisplay:10.37,2013-05-08 22:40:00,
2013-05-08 18:45:00,64.0,60.4,30.03,SSE,166,3.5,3.5,88,0.00,OVC,,0.04,0.0,WeatherDisplay:10.37,2013-05-08 22:45:00,
2013-05-08 18:50:00,64.0,60.4,30.03,SE,133,0.0,0.0,88,0.00,OVC,,0.04,0.0,WeatherDisplay:10.37,2013-05-08 22:50:00,
2013-05-08 18:55:00,64.0,60.7,30.03,ESE,105,2.3,2.3,89,0.00,OVC,,0.04,0.0,WeatherDisplay:10.37,2013-05-08 22:55:00,
2013-05-08 19:00:00,63.9,60.6,30.03,SE,140,3.5,3.5,89,0.00,OVC,,0.04,0.0,WeatherDisplay:10.37,2013-05-08 23:00:00,
2013-05-08 19:05:00,63.9,60.6,30.03,SE,132,2.3,0.0,89,0.00,OVC,,0.04,0.0,WeatherDisplay:10.37,2013-05-08 23:05:00,
2013-05-08 19:10:00,63.7,60.7,30.03,SSE,152,3.5,4.5,90,0.00,OVC,,0.04,0.0,WeatherDisplay:10.37,2013-05-08 23:10:00,
2013-05-08 19:15:00,63.7,60.7,30.03,SE,132,5.8,5.8,90,0.00,OVC,,0.04,0.0,WeatherDisplay:10.37,2013-05-08 23:15:00,
2013-05-08 19:20:00,63.5,60.5,30.03,SSE,154,3.5,3.5,90,0.00,OVC,,0.04,0.0,WeatherDisplay:10.37,2013-05-08 23:20:00,
2013-05-08 19:25:00,63.5,60.5,30.03,SE,143,3.5,3.5,90,0.00,OVC,,0.04,0.0,WeatherDisplay:10.37,2013-05-08 23:25:00,
2013-05-08 19:30:00,63.5,60.8,30.03,SSE,148,0.0,0.0,91,0.00,OVC,,0.04,0.0,WeatherDisplay:10.37,2013-05-08 23:30:00,
2013-05-08 19:35:00,63.5,60.8,30.03,East,96,0.0,0.0,91,0.00,OVC,,0.04,0.0,WeatherDisplay:10.37,2013-05-08 23:35:00,
2013-05-08 19:40:00,63.3,60.6,30.03,SE,130,5.4,5.4,91,0.00,OVC,,0.04,0.0,WeatherDisplay:10.37,2013-05-08 23:40:00,
2013-05-08 19:44:00,63.3,60.6,30.03,ESE,123,0.0,0.0,91,0.00,OVC,,0.04,0.0,WeatherDisplay:10.37,2013-05-08 23:44:00,
2013-05-08 19:49:00,63.1,60.5,30.03,ESE,117,5.8,5.8,91,0.00,OVC,,0.04,0.0,WeatherDisplay:10.37,2013-05-08 23:49:00,
2013-05-08 19:54:00,63.1,60.5,30.03,East,87,5.8,5.8,91,0.00,OVC,,0.04,0.0,WeatherDisplay:10.37,2013-05-08 23:54:00,
2013-05-08 19:59:00,63.1,60.5,30.03,SE,126,4.6,4.6,91,0.00,OVC,,0.04,0.0,WeatherDisplay:10.37,2013-05-08 23:59:00,
2013-05-08 20:04:00,63.1,60.8,30.03,SSE,147,3.5,3.5,92,0.00,OVC,,0.04,0.0,WeatherDisplay:10.37,2013-05-09 00:04:00,
2013-05-08 20:09:00,63.1,60.8,30.03,SSE,150,3.5,3.5,92,0.00,OVC,,0.04,0.0,WeatherDisplay:10.37,2013-05-09 00:09:00,
2013-05-08 20:14:00,63.1,60.8,30.03,ESE,113,3.5,3.5,92,0.00,OVC,,0.04,0.0,WeatherDisplay:10.37,2013-05-09 00:14:00,
2013-05-08 20:19:00,63.0,60.6,30.03,ESE,113,0.0,0.0,92,0.00,OVC,,0.04,0.0,WeatherDisplay:10.37,2013-05-09 00:19:00,
2013-05-08 20:24:00,63.0,60.9,30.03,SE,138,2.3,0.0,93,0.00,OVC,,0.04,0.0,WeatherDisplay:10.37,2013-05-09 00:24:00,
2013-05-08 20:29:00,63.0,60.9,30.03,SE,131,0.0,0.0,93,0.00,OVC,,0.04,0.0,WeatherDisplay:10.37,2013-05-09 00:29:00,
2013-05-08 20:34:00,63.0,60.9,30.03,ESE,118,0.0,0.0,93,0.00,OVC,,0.04,0.0,WeatherDisplay:10.37,2013-05-09 00:34:00,
2013-05-08 20:39:00,63.0,60.9,30.03,ESE,118,5.8,5.8,93,0.00,OVC,,0.04,0.0,WeatherDisplay:10.37,2013-05-09 00:39:00,
2013-05-08 20:44:00,63.0,60.9,30.03,SE,143,0.0,0.0,93,0.00,OVC,,0.04,0.0,WeatherDisplay:10.37,2013-05-09 00:44:00,
2013-05-08 20:49:00,63.0,60.9,30.03,ESE,122,2.3,2.7,93,0.00,OVC,,0.04,0.0,WeatherDisplay:10.37,2013-05-09 00:49:00,
2013-05-08 20:54:00,62.8,60.7,30.03,SSE,162,3.5,0.0,93,0.00,OVC,,0.04,0.0,WeatherDisplay:10.37,2013-05-09 00:54:00,
2013-05-08 20:59:00,62.8,60.7,30.03,SSE,153,0.0,0.0,93,0.00,OVC,,0.04,0.0,WeatherDisplay:10.37,2013-05-09 00:59:00,
2013-05-08 21:04:00,62.8,60.7,30.03,East,92,0.0,0.0,93,0.00,OVC,,0.04,0.0,WeatherDisplay:10.37,2013-05-09 01:04:00,
2013-05-08 21:09:00,62.8,60.7,30.03,SE,130,0.0,0.0,93,0.00,OVC,,0.04,0.0,WeatherDisplay:10.37,2013-05-09 01:09:00,
2013-05-08 21:14:00,62.6,60.5,30.03,East,93,3.5,3.5,93,0.00,OVC,,0.04,0.0,WeatherDisplay:10.37,2013-05-09 01:14:00,
2013-05-08 21:19:00,62.6,60.5,30.03,SE,127,3.5,0.0,93,0.00,OVC,,0.04,0.0,WeatherDisplay:10.37,2013-05-09 01:19:00,
2013-05-08 21:24:00,62.6,60.5,30.03,East,82,0.0,0.0,93,0.00,OVC,,0.04,0.0,WeatherDisplay:10.37,2013-05-09 01:24:00,
2013-05-08 21:29:00,62.6,60.5,30.03,SE,124,3.5,3.6,93,0.00,OVC,,0.04,0.0,WeatherDisplay:10.37,2013-05-09 01:29:00,
2013-05-08 21:34:00,62.6,60.5,30.03,SE,128,3.5,3.5,93,0.00,OVC,,0.04,0.0,WeatherDisplay:10.37,2013-05-09 01:34:00,
2013-05-08 21:39:00,62.6,60.5,30.03,ESE,122,3.5,0.0,93,0.00,OVC,,0.04,0.0,WeatherDisplay:10.37,2013-05-09 01:39:00,
2013-05-08 21:44:00,62.6,60.5,30.03,SSE,147,3.5,3.5,93,0.00,OVC,,0.04,0.0,WeatherDisplay:10.37,2013-05-09 01:44:00,
2013-05-08 21:49:00,62.6,60.5,30.03,ESE,114,3.5,3.5,93,0.00,OVC,,0.04,0.0,WeatherDisplay:10.37,2013-05-09 01:49:00,
2013-05-08 21:54:00,62.6,60.5,30.03,ESE,117,2.3,0.0,93,0.00,OVC,,0.04,0.0,WeatherDisplay:10.37,2013-05-09 01:54:00,
2013-05-08 21:59:00,62.6,60.5,30.03,SSE,158,3.5,3.5,93,0.00,OVC,,0.04,0.0,WeatherDisplay:10.37,2013-05-09 01:59:00,
2013-05-08 22:04:00,62.6,60.5,30.03,SSE,147,3.5,0.0,93,0.00,-RA,OVC,0.04,0.0,WeatherDisplay:10.37,2013-05-09 02:04:00,
2013-05-08 22:09:00,62.6,60.5,30.03,SE,144,3.5,3.5,93,0.00,-RA,OVC,0.04,0.0,WeatherDisplay:10.37,2013-05-09 02:09:00,
2013-05-08 22:14:00,62.6,60.5,30.03,SE,139,4.6,4.6,93,0.00,-RA,OVC,0.04,0.0,WeatherDisplay:10.37,2013-05-09 02:14:00,
2013-05-08 22:19:00,62.6,60.5,30.03,ESE,121,3.5,3.5,93,0.00,-RA,OVC,0.04,0.0,WeatherDisplay:10.37,2013-05-09 02:19:00,
2013-05-08 22:24:00,62.6,60.5,30.03,ESE,123,3.5,3.5,93,0.00,-RA,OVC,0.04,0.0,WeatherDisplay:10.37,2013-05-09 02:24:00,
2013-05-08 22:29:00,61.5,60.4,30.03,ESE,123,3.5,3.5,96,0.00,-RA,OVC,0.04,0.0,WeatherDisplay:10.37,2013-05-09 02:29:00,
2013-05-08 22:34:00,61.5,60.4,30.03,SE,142,3.5,3.5,96,0.00,OVC,,0.04,0.0,WeatherDisplay:10.37,2013-05-09 02:34:00,
2013-05-08 22:39:00,61.5,60.4,30.03,SE,124,0.0,0.0,96,0.00,OVC,,0.04,0.0,WeatherDisplay:10.37,2013-05-09 02:39:00,
2013-05-08 22:44:00,61.5,60.4,30.03,SE,132,0.0,0.0,96,0.00,OVC,,0.04,0.0,WeatherDisplay:10.37,2013-05-09 02:44:00,
2013-05-08 22:49:00,61.5,60.4,30.03,SE,145,0.0,0.0,96,0.00,OVC,,0.04,0.0,WeatherDisplay:10.37,2013-05-09 02:49:00,
2013-05-08 22:54:00,61.5,60.4,30.03,SE,141,0.0,0.0,96,0.00,OVC,,0.04,0.0,WeatherDisplay:10.37,2013-05-09 02:54:00,
2013-05-08 22:59:00,61.5,60.4,30.03,SE,141,0.0,0.0,96,0.00,OVC,,0.04,0.0,WeatherDisplay:10.37,2013-05-09 02:59:00,
2013-05-08 23:04:00,61.3,60.2,30.03,SSE,147,0.0,0.0,96,0.00,OVC,,0.04,0.0,WeatherDisplay:10.37,2013-05-09 03:04:00,
2013-05-08 23:09:00,61.3,60.2,30.03,SE,146,0.0,0.0,96,0.00,OVC,,0.04,0.0,WeatherDisplay:10.37,2013-05-09 03:09:00,
2013-05-08 23:14:00,61.3,60.2,30.03,SE,146,0.0,0.0,96,0.00,OVC,,0.04,0.0,WeatherDisplay:10.37,2013-05-09 03:14:00,
2013-05-08 23:19:00,61.3,60.2,30.03,ESE,122,0.0,0.0,96,0.00,,OVC,0.04,0.0,WeatherDisplay:10.37,2013-05-09 03:19:00,
2013-05-08 23:24:00,61.3,60.2,30.03,SE,142,0.0,0.0,96,0.00,,OVC,0.04,0.0,WeatherDisplay:10.37,2013-05-09 03:24:00,
2013-05-08 23:29:00,61.3,60.2,30.03,SSE,161,0.0,0.0,96,0.00,,OVC,0.04,0.0,WeatherDisplay:10.37,2013-05-09 03:29:00,
2013-05-08 23:34:00,61.3,60.2,30.03,SSE,161,0.0,0.0,96,0.00,,OVC,0.04,0.0,WeatherDisplay:10.37,2013-05-09 03:34:00,
2013-05-08 23:39:00,61.3,60.2,30.03,SSE,153,0.0,0.0,96,0.00,,OVC,0.04,0.0,WeatherDisplay:10.37,2013-05-09 03:39:00,
2013-05-08 23:44:00,61.3,60.2,30.03,WSW,241,0.0,0.0,96,0.00,,OVC,0.04,0.0,WeatherDisplay:10.37,2013-05-09 03:44:00,
2013-05-08 23:49:00,61.3,60.2,30.03,South,190,0.0,0.0,96,0.00,,OVC,0.04,0.0,WeatherDisplay:10.37,2013-05-09 03:49:00,
2013-05-08 23:54:00,61.3,60.2,30.03,South,177,0.0,0.0,96,0.00,,OVC,0.04,0.0,WeatherDisplay:10.37,2013-05-09 03:54:00,
2013-05-08 23:59:00,61.3,60.2,30.03,SSW,202,0.0,0.0,96,0.00,,OVC,0.04,0.0,WeatherDisplay:10.37,2013-05-09 03:59:00,